sensor_id;sensor_type;location;lat;lon;timestamp;P1;durP1;ratioP1;P2;durP2;ratioP2
62056;SDS011;48016;50.284;18.860;2023-02-07T00:00:16;219.30;;;93.40;;
62056;SDS011;48016;50.284;18.860;2023-02-07T00:03:04;220.10;;;94.80;;
62056;SDS011;48016;50.284;18.860;2023-02-07T00:05:30;228.80;;;100.20;;
62056;SDS011;48016;50.284;18.860;2023-02-07T00:07:57;230.60;;;99.90;;
62056;SDS011;48016;50.284;18.860;2023-02-07T00:10:24;249.20;;;105.10;;
62056;SDS011;48016;50.284;18.860;2023-02-07T00:12:51;256.60;;;107.70;;
62056;SDS011;48016;50.284;18.860;2023-02-07T00:15:17;267.90;;;109.60;;
62056;SDS011;48016;50.284;18.860;2023-02-07T00:17:44;259.60;;;106.10;;
62056;SDS011;48016;50.284;18.860;2023-02-07T00:20:11;289.00;;;116.00;;
62056;SDS011;48016;50.284;18.860;2023-02-07T00:22:37;291.50;;;117.50;;
62056;SDS011;48016;50.284;18.860;2023-02-07T00:25:05;247.20;;;102.30;;
62056;SDS011;48016;50.284;18.860;2023-02-07T00:27:32;217.60;;;90.20;;
62056;SDS011;48016;50.284;18.860;2023-02-07T00:29:58;205.00;;;86.30;;
62056;SDS011;48016;50.284;18.860;2023-02-07T00:32:25;208.90;;;88.60;;
62056;SDS011;48016;50.284;18.860;2023-02-07T00:35:00;197.60;;;83.80;;
62056;SDS011;48016;50.284;18.860;2023-02-07T00:37:27;195.00;;;77.00;;
62056;SDS011;48016;50.284;18.860;2023-02-07T00:39:54;180.00;;;80.00;;
62056;SDS011;48016;50.284;18.860;2023-02-07T00:42:21;183.90;;;75.50;;
62056;SDS011;48016;50.284;18.860;2023-02-07T00:44:48;160.30;;;69.00;;
62056;SDS011;48016;50.284;18.860;2023-02-07T00:47:14;137.30;;;60.50;;
62056;SDS011;48016;50.284;18.860;2023-02-07T00:49:41;127.00;;;51.20;;
62056;SDS011;48016;50.284;18.860;2023-02-07T00:52:08;115.20;;;47.20;;
62056;SDS011;48016;50.284;18.860;2023-02-07T00:54:35;137.00;;;57.10;;
62056;SDS011;48016;50.284;18.860;2023-02-07T00:57:01;152.30;;;66.10;;
62056;SDS011;48016;50.284;18.860;2023-02-07T00:59:29;151.60;;;62.70;;
62056;SDS011;48016;50.284;18.860;2023-02-07T01:01:55;134.90;;;56.50;;
62056;SDS011;48016;50.284;18.860;2023-02-07T01:04:22;121.70;;;49.90;;
62056;SDS011;48016;50.284;18.860;2023-02-07T01:06:48;118.40;;;48.70;;
62056;SDS011;48016;50.284;18.860;2023-02-07T01:09:15;127.90;;;51.50;;
62056;SDS011;48016;50.284;18.860;2023-02-07T01:11:42;105.80;;;48.10;;
62056;SDS011;48016;50.284;18.860;2023-02-07T01:14:08;88.90;;;38.60;;
62056;SDS011;48016;50.284;18.860;2023-02-07T01:16:36;80.70;;;36.70;;
62056;SDS011;48016;50.284;18.860;2023-02-07T01:19:06;82.80;;;36.90;;
62056;SDS011;48016;50.284;18.860;2023-02-07T01:21:35;81.20;;;36.70;;
62056;SDS011;48016;50.284;18.860;2023-02-07T01:24:02;84.20;;;37.30;;
62056;SDS011;48016;50.284;18.860;2023-02-07T01:26:29;110.60;;;44.40;;
62056;SDS011;48016;50.284;18.860;2023-02-07T01:28:55;88.60;;;38.00;;
62056;SDS011;48016;50.284;18.860;2023-02-07T01:31:22;100.30;;;43.30;;
62056;SDS011;48016;50.284;18.860;2023-02-07T01:33:53;87.50;;;39.10;;
62056;SDS011;48016;50.284;18.860;2023-02-07T01:36:21;97.20;;;39.10;;
62056;SDS011;48016;50.284;18.860;2023-02-07T01:41:16;90.60;;;37.20;;
62056;SDS011;48016;50.284;18.860;2023-02-07T01:43:54;82.40;;;38.00;;
62056;SDS011;48016;50.284;18.860;2023-02-07T01:46:23;82.30;;;39.60;;
62056;SDS011;48016;50.284;18.860;2023-02-07T01:48:50;87.40;;;40.20;;
62056;SDS011;48016;50.284;18.860;2023-02-07T01:51:18;96.10;;;40.30;;
62056;SDS011;48016;50.284;18.860;2023-02-07T01:53:45;94.50;;;39.00;;
62056;SDS011;48016;50.284;18.860;2023-02-07T01:56:12;94.00;;;40.00;;
62056;SDS011;48016;50.284;18.860;2023-02-07T01:58:40;111.20;;;46.10;;
62056;SDS011;48016;50.284;18.860;2023-02-07T02:01:09;103.80;;;44.60;;
62056;SDS011;48016;50.284;18.860;2023-02-07T02:03:43;104.20;;;44.10;;
62056;SDS011;48016;50.284;18.860;2023-02-07T02:06:13;109.30;;;49.00;;
62056;SDS011;48016;50.284;18.860;2023-02-07T02:08:40;117.10;;;47.30;;
62056;SDS011;48016;50.284;18.860;2023-02-07T02:11:24;127.80;;;52.80;;
62056;SDS011;48016;50.284;18.860;2023-02-07T02:16:56;140.30;;;56.50;;
62056;SDS011;48016;50.284;18.860;2023-02-07T02:23:09;144.20;;;61.40;;
62056;SDS011;48016;50.284;18.860;2023-02-07T02:28:38;170.00;;;73.30;;
62056;SDS011;48016;50.284;18.860;2023-02-07T02:40:20;204.60;;;86.20;;
62056;SDS011;48016;50.284;18.860;2023-02-07T02:43:20;198.80;;;79.90;;
62056;SDS011;48016;50.284;18.860;2023-02-07T02:45:41;210.10;;;82.70;;
62056;SDS011;48016;50.284;18.860;2023-02-07T02:48:12;206.80;;;83.00;;
62056;SDS011;48016;50.284;18.860;2023-02-07T02:50:38;216.20;;;88.20;;
62056;SDS011;48016;50.284;18.860;2023-02-07T02:53:12;238.10;;;98.30;;
62056;SDS011;48016;50.284;18.860;2023-02-07T03:07:30;257.70;;;104.30;;
62056;SDS011;48016;50.284;18.860;2023-02-07T03:12:43;264.90;;;103.10;;
62056;SDS011;48016;50.284;18.860;2023-02-07T03:18:27;265.80;;;103.40;;
62056;SDS011;48016;50.284;18.860;2023-02-07T03:21:07;267.50;;;104.30;;
62056;SDS011;48016;50.284;18.860;2023-02-07T03:23:37;260.50;;;101.40;;
62056;SDS011;48016;50.284;18.860;2023-02-07T03:26:05;261.40;;;105.00;;
62056;SDS011;48016;50.284;18.860;2023-02-07T03:28:34;260.50;;;100.20;;
62056;SDS011;48016;50.284;18.860;2023-02-07T03:31:04;255.10;;;98.90;;
62056;SDS011;48016;50.284;18.860;2023-02-07T03:33:34;251.80;;;100.40;;
62056;SDS011;48016;50.284;18.860;2023-02-07T03:36:04;239.00;;;98.20;;
62056;SDS011;48016;50.284;18.860;2023-02-07T03:38:36;259.20;;;103.50;;
62056;SDS011;48016;50.284;18.860;2023-02-07T03:41:05;257.80;;;96.70;;
62056;SDS011;48016;50.284;18.860;2023-02-07T03:43:40;234.10;;;94.70;;
62056;SDS011;48016;50.284;18.860;2023-02-07T03:46:09;238.70;;;94.50;;
62056;SDS011;48016;50.284;18.860;2023-02-07T03:48:37;228.50;;;92.90;;
62056;SDS011;48016;50.284;18.860;2023-02-07T03:51:03;228.80;;;91.10;;
62056;SDS011;48016;50.284;18.860;2023-02-07T03:53:30;212.40;;;85.20;;
62056;SDS011;48016;50.284;18.860;2023-02-07T03:55:57;199.60;;;79.90;;
62056;SDS011;48016;50.284;18.860;2023-02-07T03:58:23;203.90;;;81.30;;
62056;SDS011;48016;50.284;18.860;2023-02-07T04:00:50;200.40;;;79.60;;
62056;SDS011;48016;50.284;18.860;2023-02-07T04:03:17;186.70;;;76.30;;
62056;SDS011;48016;50.284;18.860;2023-02-07T04:05:44;187.90;;;77.70;;
62056;SDS011;48016;50.284;18.860;2023-02-07T04:10:37;197.00;;;75.40;;
62056;SDS011;48016;50.284;18.860;2023-02-07T04:13:04;168.80;;;68.60;;
62056;SDS011;48016;50.284;18.860;2023-02-07T04:15:31;171.00;;;68.90;;
62056;SDS011;48016;50.284;18.860;2023-02-07T04:17:58;170.20;;;69.20;;
62056;SDS011;48016;50.284;18.860;2023-02-07T04:20:24;161.90;;;66.20;;
62056;SDS011;48016;50.284;18.860;2023-02-07T04:22:51;150.10;;;59.40;;
62056;SDS011;48016;50.284;18.860;2023-02-07T04:25:18;142.10;;;60.20;;
62056;SDS011;48016;50.284;18.860;2023-02-07T04:27:45;142.80;;;56.00;;
62056;SDS011;48016;50.284;18.860;2023-02-07T04:30:12;134.10;;;60.40;;
62056;SDS011;48016;50.284;18.860;2023-02-07T04:32:39;145.50;;;57.40;;
62056;SDS011;48016;50.284;18.860;2023-02-07T04:35:06;135.50;;;57.10;;
62056;SDS011;48016;50.284;18.860;2023-02-07T04:37:33;159.00;;;62.30;;
62056;SDS011;48016;50.284;18.860;2023-02-07T04:39:59;158.50;;;63.20;;
62056;SDS011;48016;50.284;18.860;2023-02-07T04:42:26;164.30;;;66.10;;
62056;SDS011;48016;50.284;18.860;2023-02-07T04:44:53;162.20;;;66.60;;
62056;SDS011;48016;50.284;18.860;2023-02-07T04:47:19;150.00;;;61.10;;
62056;SDS011;48016;50.284;18.860;2023-02-07T04:49:46;150.90;;;59.10;;
62056;SDS011;48016;50.284;18.860;2023-02-07T04:52:13;155.60;;;62.60;;
62056;SDS011;48016;50.284;18.860;2023-02-07T04:54:39;153.80;;;61.50;;
62056;SDS011;48016;50.284;18.860;2023-02-07T04:57:06;138.50;;;58.70;;
62056;SDS011;48016;50.284;18.860;2023-02-07T04:59:33;148.60;;;59.00;;
62056;SDS011;48016;50.284;18.860;2023-02-07T05:01:59;148.80;;;60.80;;
62056;SDS011;48016;50.284;18.860;2023-02-07T05:04:26;148.30;;;58.40;;
62056;SDS011;48016;50.284;18.860;2023-02-07T05:06:53;147.40;;;59.40;;
62056;SDS011;48016;50.284;18.860;2023-02-07T05:09:19;137.40;;;60.00;;
62056;SDS011;48016;50.284;18.860;2023-02-07T05:11:46;144.60;;;58.30;;
62056;SDS011;48016;50.284;18.860;2023-02-07T05:14:13;149.10;;;57.50;;
62056;SDS011;48016;50.284;18.860;2023-02-07T05:16:40;142.10;;;57.60;;
62056;SDS011;48016;50.284;18.860;2023-02-07T05:19:06;137.80;;;59.20;;
62056;SDS011;48016;50.284;18.860;2023-02-07T05:21:33;148.20;;;59.10;;
62056;SDS011;48016;50.284;18.860;2023-02-07T05:24:00;150.90;;;60.80;;
62056;SDS011;48016;50.284;18.860;2023-02-07T05:26:27;152.00;;;60.00;;
62056;SDS011;48016;50.284;18.860;2023-02-07T05:28:53;143.80;;;58.60;;
62056;SDS011;48016;50.284;18.860;2023-02-07T05:31:20;143.30;;;59.70;;
62056;SDS011;48016;50.284;18.860;2023-02-07T05:34:06;145.50;;;57.90;;
62056;SDS011;48016;50.284;18.860;2023-02-07T05:36:33;145.40;;;58.10;;
62056;SDS011;48016;50.284;18.860;2023-02-07T05:39:00;147.90;;;60.70;;
62056;SDS011;48016;50.284;18.860;2023-02-07T05:41:26;145.50;;;59.70;;
62056;SDS011;48016;50.284;18.860;2023-02-07T05:43:53;137.40;;;59.80;;
62056;SDS011;48016;50.284;18.860;2023-02-07T05:46:20;147.60;;;60.90;;
62056;SDS011;48016;50.284;18.860;2023-02-07T05:48:47;158.20;;;69.20;;
62056;SDS011;48016;50.284;18.860;2023-02-07T05:51:13;163.20;;;67.20;;
62056;SDS011;48016;50.284;18.860;2023-02-07T05:53:40;171.60;;;69.90;;
62056;SDS011;48016;50.284;18.860;2023-02-07T05:56:07;172.60;;;71.00;;
62056;SDS011;48016;50.284;18.860;2023-02-07T05:58:33;176.10;;;68.40;;
62056;SDS011;48016;50.284;18.860;2023-02-07T06:01:00;147.90;;;62.90;;
62056;SDS011;48016;50.284;18.860;2023-02-07T06:03:27;177.10;;;70.30;;
62056;SDS011;48016;50.284;18.860;2023-02-07T06:05:53;186.40;;;76.60;;
62056;SDS011;48016;50.284;18.860;2023-02-07T06:08:20;218.40;;;87.50;;
62056;SDS011;48016;50.284;18.860;2023-02-07T06:10:47;235.20;;;94.70;;
62056;SDS011;48016;50.284;18.860;2023-02-07T06:13:14;238.10;;;95.30;;
62056;SDS011;48016;50.284;18.860;2023-02-07T06:15:41;236.80;;;97.50;;
62056;SDS011;48016;50.284;18.860;2023-02-07T06:18:08;248.50;;;99.50;;
62056;SDS011;48016;50.284;18.860;2023-02-07T06:20:34;246.70;;;100.30;;
62056;SDS011;48016;50.284;18.860;2023-02-07T06:23:01;233.90;;;98.20;;
62056;SDS011;48016;50.284;18.860;2023-02-07T06:25:28;214.20;;;89.60;;
62056;SDS011;48016;50.284;18.860;2023-02-07T06:27:54;198.90;;;80.80;;
62056;SDS011;48016;50.284;18.860;2023-02-07T06:30:21;219.90;;;85.60;;
62056;SDS011;48016;50.284;18.860;2023-02-07T06:32:48;210.20;;;83.60;;
62056;SDS011;48016;50.284;18.860;2023-02-07T06:35:15;200.00;;;84.30;;
62056;SDS011;48016;50.284;18.860;2023-02-07T06:37:42;226.00;;;94.80;;
62056;SDS011;48016;50.284;18.860;2023-02-07T06:40:09;224.90;;;86.80;;
62056;SDS011;48016;50.284;18.860;2023-02-07T06:42:36;232.60;;;94.60;;
62056;SDS011;48016;50.284;18.860;2023-02-07T06:45:02;240.00;;;102.10;;
62056;SDS011;48016;50.284;18.860;2023-02-07T06:47:30;257.80;;;102.00;;
62056;SDS011;48016;50.284;18.860;2023-02-07T06:49:56;275.10;;;113.10;;
62056;SDS011;48016;50.284;18.860;2023-02-07T06:52:23;292.30;;;113.20;;
62056;SDS011;48016;50.284;18.860;2023-02-07T06:54:50;292.00;;;122.90;;
62056;SDS011;48016;50.284;18.860;2023-02-07T06:57:17;360.00;;;148.20;;
62056;SDS011;48016;50.284;18.860;2023-02-07T06:59:43;376.10;;;151.40;;
62056;SDS011;48016;50.284;18.860;2023-02-07T07:02:11;375.40;;;152.20;;
62056;SDS011;48016;50.284;18.860;2023-02-07T07:04:38;397.10;;;162.20;;
62056;SDS011;48016;50.284;18.860;2023-02-07T07:07:04;379.10;;;156.30;;
62056;SDS011;48016;50.284;18.860;2023-02-07T07:09:31;404.50;;;176.10;;
62056;SDS011;48016;50.284;18.860;2023-02-07T07:11:58;408.20;;;176.10;;
62056;SDS011;48016;50.284;18.860;2023-02-07T07:14:25;413.20;;;172.10;;
62056;SDS011;48016;50.284;18.860;2023-02-07T07:16:51;387.00;;;160.30;;
62056;SDS011;48016;50.284;18.860;2023-02-07T07:19:18;374.70;;;158.60;;
62056;SDS011;48016;50.284;18.860;2023-02-07T07:21:45;375.20;;;156.70;;
62056;SDS011;48016;50.284;18.860;2023-02-07T07:24:11;373.20;;;164.00;;
62056;SDS011;48016;50.284;18.860;2023-02-07T07:26:38;366.50;;;154.30;;
62056;SDS011;48016;50.284;18.860;2023-02-07T07:29:05;390.30;;;168.00;;
62056;SDS011;48016;50.284;18.860;2023-02-07T07:31:33;375.20;;;164.80;;
62056;SDS011;48016;50.284;18.860;2023-02-07T07:34:00;382.90;;;162.10;;
62056;SDS011;48016;50.284;18.860;2023-02-07T07:36:27;333.70;;;136.90;;
62056;SDS011;48016;50.284;18.860;2023-02-07T07:38:53;360.40;;;148.80;;
62056;SDS011;48016;50.284;18.860;2023-02-07T07:41:20;368.30;;;153.10;;
62056;SDS011;48016;50.284;18.860;2023-02-07T07:43:47;379.20;;;156.50;;
62056;SDS011;48016;50.284;18.860;2023-02-07T07:46:13;347.20;;;145.50;;
62056;SDS011;48016;50.284;18.860;2023-02-07T07:48:40;353.60;;;144.40;;
62056;SDS011;48016;50.284;18.860;2023-02-07T07:51:07;339.70;;;134.90;;
62056;SDS011;48016;50.284;18.860;2023-02-07T07:53:34;365.20;;;141.70;;
62056;SDS011;48016;50.284;18.860;2023-02-07T07:56:01;336.70;;;140.80;;
62056;SDS011;48016;50.284;18.860;2023-02-07T07:58:27;320.20;;;134.30;;
62056;SDS011;48016;50.284;18.860;2023-02-07T08:00:54;311.70;;;130.40;;
62056;SDS011;48016;50.284;18.860;2023-02-07T08:03:21;299.60;;;125.70;;
62056;SDS011;48016;50.284;18.860;2023-02-07T08:05:49;289.40;;;122.30;;
62056;SDS011;48016;50.284;18.860;2023-02-07T08:08:16;302.70;;;125.90;;
62056;SDS011;48016;50.284;18.860;2023-02-07T08:10:45;289.60;;;120.40;;
62056;SDS011;48016;50.284;18.860;2023-02-07T08:13:13;286.20;;;120.80;;
62056;SDS011;48016;50.284;18.860;2023-02-07T08:15:39;302.00;;;123.00;;
62056;SDS011;48016;50.284;18.860;2023-02-07T08:18:07;283.90;;;120.50;;
62056;SDS011;48016;50.284;18.860;2023-02-07T08:20:34;292.80;;;120.80;;
62056;SDS011;48016;50.284;18.860;2023-02-07T08:23:01;294.20;;;119.10;;
62056;SDS011;48016;50.284;18.860;2023-02-07T08:25:27;280.20;;;115.60;;
62056;SDS011;48016;50.284;18.860;2023-02-07T08:27:54;298.80;;;121.00;;
62056;SDS011;48016;50.284;18.860;2023-02-07T08:30:21;292.40;;;120.60;;
62056;SDS011;48016;50.284;18.860;2023-02-07T08:32:48;325.20;;;127.80;;
62056;SDS011;48016;50.284;18.860;2023-02-07T08:35:17;324.00;;;127.80;;
62056;SDS011;48016;50.284;18.860;2023-02-07T08:40:11;320.60;;;124.90;;
62056;SDS011;48016;50.284;18.860;2023-02-07T08:42:38;322.10;;;125.00;;
62056;SDS011;48016;50.284;18.860;2023-02-07T08:45:05;300.40;;;118.50;;
62056;SDS011;48016;50.284;18.860;2023-02-07T08:47:32;289.60;;;119.90;;
62056;SDS011;48016;50.284;18.860;2023-02-07T08:49:59;301.90;;;122.80;;
62056;SDS011;48016;50.284;18.860;2023-02-07T08:52:26;293.70;;;114.10;;
62056;SDS011;48016;50.284;18.860;2023-02-07T08:54:53;264.90;;;106.50;;
62056;SDS011;48016;50.284;18.860;2023-02-07T08:57:19;232.80;;;100.40;;
62056;SDS011;48016;50.284;18.860;2023-02-07T08:59:50;232.10;;;95.50;;
62056;SDS011;48016;50.284;18.860;2023-02-07T09:02:18;209.30;;;89.70;;
62056;SDS011;48016;50.284;18.860;2023-02-07T09:04:46;196.10;;;87.10;;
62056;SDS011;48016;50.284;18.860;2023-02-07T09:07:13;196.90;;;83.60;;
62056;SDS011;48016;50.284;18.860;2023-02-07T09:09:40;189.10;;;84.40;;
62056;SDS011;48016;50.284;18.860;2023-02-07T09:12:07;202.70;;;86.50;;
62056;SDS011;48016;50.284;18.860;2023-02-07T09:17:02;187.40;;;80.20;;
62056;SDS011;48016;50.284;18.860;2023-02-07T09:19:30;206.00;;;86.40;;
62056;SDS011;48016;50.284;18.860;2023-02-07T09:21:56;222.80;;;94.50;;
62056;SDS011;48016;50.284;18.860;2023-02-07T09:24:23;225.00;;;92.80;;
62056;SDS011;48016;50.284;18.860;2023-02-07T09:26:50;253.90;;;98.50;;
62056;SDS011;48016;50.284;18.860;2023-02-07T09:29:17;248.10;;;101.30;;
62056;SDS011;48016;50.284;18.860;2023-02-07T09:31:43;244.00;;;105.70;;
62056;SDS011;48016;50.284;18.860;2023-02-07T09:34:11;229.50;;;103.00;;
62056;SDS011;48016;50.284;18.860;2023-02-07T09:36:37;231.90;;;101.80;;
62056;SDS011;48016;50.284;18.860;2023-02-07T09:39:04;238.50;;;103.70;;
62056;SDS011;48016;50.284;18.860;2023-02-07T09:44:33;236.20;;;106.80;;
62056;SDS011;48016;50.284;18.860;2023-02-07T09:47:21;210.70;;;101.30;;
62056;SDS011;48016;50.284;18.860;2023-02-07T09:54:56;209.80;;;93.50;;
62056;SDS011;48016;50.284;18.860;2023-02-07T09:57:43;191.90;;;87.10;;
62056;SDS011;48016;50.284;18.860;2023-02-07T10:00:25;186.10;;;89.50;;
62056;SDS011;48016;50.284;18.860;2023-02-07T10:05:42;181.00;;;81.20;;
62056;SDS011;48016;50.284;18.860;2023-02-07T10:08:12;166.80;;;79.70;;
62056;SDS011;48016;50.284;18.860;2023-02-07T10:11:24;177.30;;;82.20;;
62056;SDS011;48016;50.284;18.860;2023-02-07T10:13:46;181.10;;;82.70;;
62056;SDS011;48016;50.284;18.860;2023-02-07T10:24:48;158.50;;;74.90;;
62056;SDS011;48016;50.284;18.860;2023-02-07T10:27:28;156.90;;;71.80;;
62056;SDS011;48016;50.284;18.860;2023-02-07T10:30:10;152.50;;;76.00;;
62056;SDS011;48016;50.284;18.860;2023-02-07T10:32:42;164.80;;;76.50;;
62056;SDS011;48016;50.284;18.860;2023-02-07T10:35:19;154.70;;;70.30;;
62056;SDS011;48016;50.284;18.860;2023-02-07T10:37:51;139.10;;;63.20;;
62056;SDS011;48016;50.284;18.860;2023-02-07T10:45:57;132.00;;;61.00;;
62056;SDS011;48016;50.284;18.860;2023-02-07T10:48:47;138.90;;;64.80;;
62056;SDS011;48016;50.284;18.860;2023-02-07T10:51:34;131.00;;;62.70;;
62056;SDS011;48016;50.284;18.860;2023-02-07T10:54:13;129.50;;;62.60;;
62056;SDS011;48016;50.284;18.860;2023-02-07T10:56:46;137.60;;;61.90;;
62056;SDS011;48016;50.284;18.860;2023-02-07T11:04:54;127.40;;;60.50;;
62056;SDS011;48016;50.284;18.860;2023-02-07T11:07:22;122.20;;;56.90;;
62056;SDS011;48016;50.284;18.860;2023-02-07T11:09:50;133.80;;;60.80;;
62056;SDS011;48016;50.284;18.860;2023-02-07T11:12:20;125.00;;;61.20;;
62056;SDS011;48016;50.284;18.860;2023-02-07T11:15:03;131.00;;;61.50;;
62056;SDS011;48016;50.284;18.860;2023-02-07T11:17:33;132.00;;;60.90;;
62056;SDS011;48016;50.284;18.860;2023-02-07T11:20:04;132.20;;;63.90;;
62056;SDS011;48016;50.284;18.860;2023-02-07T11:22:32;135.40;;;60.70;;
62056;SDS011;48016;50.284;18.860;2023-02-07T11:25:01;116.00;;;56.40;;
62056;SDS011;48016;50.284;18.860;2023-02-07T11:27:38;123.40;;;58.40;;
62056;SDS011;48016;50.284;18.860;2023-02-07T11:30:17;123.00;;;59.90;;
62056;SDS011;48016;50.284;18.860;2023-02-07T11:32:56;125.50;;;60.10;;
62056;SDS011;48016;50.284;18.860;2023-02-07T11:35:26;127.00;;;59.70;;
62056;SDS011;48016;50.284;18.860;2023-02-07T11:40:28;124.60;;;56.50;;
62056;SDS011;48016;50.284;18.860;2023-02-07T11:43:02;110.00;;;51.30;;
62056;SDS011;48016;50.284;18.860;2023-02-07T11:45:38;101.10;;;47.10;;
62056;SDS011;48016;50.284;18.860;2023-02-07T11:48:20;102.50;;;45.80;;
62056;SDS011;48016;50.284;18.860;2023-02-07T11:50:52;94.20;;;45.20;;
62056;SDS011;48016;50.284;18.860;2023-02-07T11:55:50;98.90;;;48.10;;
62056;SDS011;48016;50.284;18.860;2023-02-07T11:58:56;106.30;;;47.00;;
62056;SDS011;48016;50.284;18.860;2023-02-07T12:01:17;104.90;;;47.20;;
62056;SDS011;48016;50.284;18.860;2023-02-07T12:03:53;103.30;;;47.60;;
62056;SDS011;48016;50.284;18.860;2023-02-07T12:06:31;105.60;;;47.20;;
62056;SDS011;48016;50.284;18.860;2023-02-07T12:09:04;99.70;;;45.90;;
62056;SDS011;48016;50.284;18.860;2023-02-07T12:11:36;105.50;;;48.30;;
62056;SDS011;48016;50.284;18.860;2023-02-07T12:14:15;100.40;;;44.10;;
62056;SDS011;48016;50.284;18.860;2023-02-07T12:16:45;96.80;;;41.90;;
62056;SDS011;48016;50.284;18.860;2023-02-07T12:19:19;88.90;;;41.30;;
62056;SDS011;48016;50.284;18.860;2023-02-07T12:21:57;83.20;;;41.20;;
62056;SDS011;48016;50.284;18.860;2023-02-07T12:24:52;84.10;;;37.00;;
62056;SDS011;48016;50.284;18.860;2023-02-07T12:27:28;86.80;;;39.70;;
62056;SDS011;48016;50.284;18.860;2023-02-07T12:38:23;81.30;;;35.20;;
62056;SDS011;48016;50.284;18.860;2023-02-07T12:44:00;87.50;;;39.70;;
62056;SDS011;48016;50.284;18.860;2023-02-07T12:49:37;74.90;;;34.50;;
62056;SDS011;48016;50.284;18.860;2023-02-07T13:06:56;49.30;;;25.10;;
62056;SDS011;48016;50.284;18.860;2023-02-07T13:22:59;51.50;;;25.30;;
62056;SDS011;48016;50.284;18.860;2023-02-07T13:25:29;52.50;;;23.80;;
62056;SDS011;48016;50.284;18.860;2023-02-07T13:28:05;49.60;;;22.40;;
62056;SDS011;48016;50.284;18.860;2023-02-07T13:36:12;37.90;;;18.80;;
62056;SDS011;48016;50.284;18.860;2023-02-07T13:54:54;31.60;;;15.70;;
62056;SDS011;48016;50.284;18.860;2023-02-07T14:00:29;35.70;;;17.90;;
62056;SDS011;48016;50.284;18.860;2023-02-07T14:03:00;35.60;;;18.40;;
62056;SDS011;48016;50.284;18.860;2023-02-07T14:05:30;38.30;;;19.00;;
62056;SDS011;48016;50.284;18.860;2023-02-07T14:08:04;35.40;;;18.30;;
62056;SDS011;48016;50.284;18.860;2023-02-07T14:15:52;40.60;;;19.10;;
62056;SDS011;48016;50.284;18.860;2023-02-07T14:18:38;41.00;;;19.40;;
62056;SDS011;48016;50.284;18.860;2023-02-07T14:34:19;39.90;;;19.40;;
62056;SDS011;48016;50.284;18.860;2023-02-07T14:36:47;39.10;;;19.00;;
62056;SDS011;48016;50.284;18.860;2023-02-07T14:41:45;42.90;;;20.00;;
62056;SDS011;48016;50.284;18.860;2023-02-07T14:44:28;41.90;;;19.70;;
62056;SDS011;48016;50.284;18.860;2023-02-07T14:47:04;40.70;;;19.90;;
62056;SDS011;48016;50.284;18.860;2023-02-07T14:49:52;38.70;;;19.60;;
62056;SDS011;48016;50.284;18.860;2023-02-07T14:52:23;41.30;;;20.40;;
62056;SDS011;48016;50.284;18.860;2023-02-07T14:57:41;47.40;;;23.60;;
62056;SDS011;48016;50.284;18.860;2023-02-07T15:05:17;49.60;;;23.50;;
62056;SDS011;48016;50.284;18.860;2023-02-07T15:07:47;50.10;;;24.80;;
62056;SDS011;48016;50.284;18.860;2023-02-07T15:10:27;45.80;;;22.20;;
62056;SDS011;48016;50.284;18.860;2023-02-07T15:15:26;50.20;;;23.90;;
62056;SDS011;48016;50.284;18.860;2023-02-07T15:17:54;47.80;;;22.70;;
62056;SDS011;48016;50.284;18.860;2023-02-07T15:20:25;46.60;;;21.70;;
62056;SDS011;48016;50.284;18.860;2023-02-07T15:22:55;46.80;;;21.00;;
62056;SDS011;48016;50.284;18.860;2023-02-07T15:25:25;49.80;;;23.30;;
62056;SDS011;48016;50.284;18.860;2023-02-07T15:28:01;49.80;;;23.00;;
62056;SDS011;48016;50.284;18.860;2023-02-07T15:30:30;46.80;;;22.30;;
62056;SDS011;48016;50.284;18.860;2023-02-07T15:32:58;43.50;;;22.70;;
62056;SDS011;48016;50.284;18.860;2023-02-07T15:35:28;53.70;;;23.90;;
62056;SDS011;48016;50.284;18.860;2023-02-07T15:38:19;52.10;;;24.50;;
62056;SDS011;48016;50.284;18.860;2023-02-07T15:40:49;49.10;;;23.40;;
62056;SDS011;48016;50.284;18.860;2023-02-07T15:43:51;50.40;;;23.20;;
62056;SDS011;48016;50.284;18.860;2023-02-07T15:46:18;50.50;;;23.30;;
62056;SDS011;48016;50.284;18.860;2023-02-07T15:48:50;49.80;;;22.70;;
62056;SDS011;48016;50.284;18.860;2023-02-07T15:51:18;53.00;;;23.40;;
62056;SDS011;48016;50.284;18.860;2023-02-07T15:53:48;52.80;;;23.40;;
62056;SDS011;48016;50.284;18.860;2023-02-07T15:56:17;52.80;;;24.00;;
62056;SDS011;48016;50.284;18.860;2023-02-07T16:01:22;59.00;;;26.10;;
62056;SDS011;48016;50.284;18.860;2023-02-07T16:03:53;64.20;;;28.50;;
62056;SDS011;48016;50.284;18.860;2023-02-07T16:06:24;61.30;;;30.00;;
62056;SDS011;48016;50.284;18.860;2023-02-07T16:08:54;60.30;;;27.40;;
62056;SDS011;48016;50.284;18.860;2023-02-07T16:13:54;66.90;;;29.50;;
62056;SDS011;48016;50.284;18.860;2023-02-07T16:16:54;70.10;;;28.30;;
62056;SDS011;48016;50.284;18.860;2023-02-07T16:19:29;64.60;;;26.90;;
62056;SDS011;48016;50.284;18.860;2023-02-07T16:24:37;71.70;;;29.70;;
62056;SDS011;48016;50.284;18.860;2023-02-07T16:27:13;60.70;;;29.70;;
62056;SDS011;48016;50.284;18.860;2023-02-07T16:29:43;63.90;;;28.70;;
62056;SDS011;48016;50.284;18.860;2023-02-07T16:32:11;63.00;;;27.60;;
62056;SDS011;48016;50.284;18.860;2023-02-07T16:34:39;60.90;;;27.00;;
62056;SDS011;48016;50.284;18.860;2023-02-07T16:37:06;57.60;;;26.80;;
62056;SDS011;48016;50.284;18.860;2023-02-07T16:39:33;63.50;;;27.60;;
62056;SDS011;48016;50.284;18.860;2023-02-07T16:42:00;57.80;;;26.10;;
62056;SDS011;48016;50.284;18.860;2023-02-07T16:44:32;66.90;;;28.00;;
62056;SDS011;48016;50.284;18.860;2023-02-07T16:47:01;60.20;;;26.20;;
62056;SDS011;48016;50.284;18.860;2023-02-07T16:49:28;68.90;;;26.50;;
62056;SDS011;48016;50.284;18.860;2023-02-07T16:51:57;60.10;;;25.80;;
62056;SDS011;48016;50.284;18.860;2023-02-07T16:56:54;65.90;;;28.50;;
62056;SDS011;48016;50.284;18.860;2023-02-07T16:59:23;61.90;;;27.10;;
62056;SDS011;48016;50.284;18.860;2023-02-07T17:01:51;67.70;;;29.80;;
62056;SDS011;48016;50.284;18.860;2023-02-07T17:04:19;71.40;;;31.20;;
62056;SDS011;48016;50.284;18.860;2023-02-07T17:06:47;71.70;;;32.30;;
62056;SDS011;48016;50.284;18.860;2023-02-07T17:09:15;79.50;;;36.10;;
62056;SDS011;48016;50.284;18.860;2023-02-07T17:11:44;74.70;;;34.70;;
62056;SDS011;48016;50.284;18.860;2023-02-07T17:14:11;83.60;;;37.50;;
62056;SDS011;48016;50.284;18.860;2023-02-07T17:16:38;85.10;;;39.40;;
62056;SDS011;48016;50.284;18.860;2023-02-07T17:19:13;91.10;;;40.10;;
62056;SDS011;48016;50.284;18.860;2023-02-07T17:21:43;87.40;;;38.70;;